Time;durP1;ratioP1;P1;durP2;ratioP2;P2;SDS_P1;SDS_P2;PMS_P1;PMS_P2;Temp;Humidity;BMP_temperature;BMP_pressure;BME280_temperature;BME280_humidity;BME280_pressure;Samples;Min_cycle;Max_cycle;Signal;HPM_P1;HPM_P2
2024/04/25 00:01:54;;;;;;;0.70;0.70;;;7.10;96.50;;;;;;11128001;26;20236;-76
2024/04/25 00:07:01;;;;;;;0.70;0.70;;;7.10;96.50;;;;;;11130196;26;20786;-76
2024/04/25 00:12:05;;;;;;;0.60;0.60;;;7.00;96.70;;;;;;11127944;26;20267;-76
2024/04/25 00:17:09;;;;;;;0.80;0.80;;;7.10;96.50;;;;;;11131589;26;20717;-77
2024/04/25 00:22:15;;;;;;;0.70;0.70;;;7.10;96.40;;;;;;11131041;26;20247;-78
2024/04/25 00:27:19;;;;;;;0.67;0.67;;;7.00;96.50;;;;;;11131917;26;20623;-77
2024/04/25 00:32:23;;;;;;;0.73;0.73;;;7.00;96.20;;;;;;11108352;26;20361;-77
2024/04/25 00:37:30;;;;;;;0.60;0.60;;;6.90;96.20;;;;;;11130354;26;20318;-76
2024/04/25 00:42:34;;;;;;;0.50;0.50;;;6.80;96.10;;;;;;11119860;26;20274;-77
2024/04/25 00:47:39;;;;;;;0.60;0.60;;;6.80;96.10;;;;;;11084644;26;20661;-76
2024/04/25 00:52:47;;;;;;;0.60;0.60;;;6.80;96.10;;;;;;11130483;26;20632;-75
2024/04/25 00:57:52;;;;;;;0.70;0.70;;;6.80;96.30;;;;;;11097905;26;20232;-76
2024/04/25 01:02:57;;;;;;;0.70;0.70;;;6.70;96.40;;;;;;11121477;26;20270;-75
2024/04/25 01:08:03;;;;;;;0.70;0.70;;;6.70;96.20;;;;;;11129125;26;20329;-75
2024/04/25 01:13:07;;;;;;;0.80;0.80;;;6.60;96.10;;;;;;11091610;26;20235;-73
2024/04/25 01:18:14;;;;;;;0.70;0.70;;;6.60;96.10;;;;;;11098753;26;20232;-76
2024/04/25 01:23:22;;;;;;;0.70;0.70;;;6.60;96.40;;;;;;11129427;26;20236;-76
2024/04/25 01:28:28;;;;;;;0.70;0.70;;;6.60;96.40;;;;;;11100164;26;20244;-75
2024/04/25 01:33:35;;;;;;;0.90;0.90;;;6.70;96.50;;;;;;11129616;26;20946;-76
2024/04/25 01:38:39;;;;;;;0.67;0.67;;;6.70;96.30;;;;;;11129015;26;20652;-75
2024/04/25 01:43:45;;;;;;;0.73;0.73;;;6.80;96.20;;;;;;11128147;26;20236;-75
2024/04/25 01:48:51;;;;;;;0.97;0.97;;;6.80;96.30;;;;;;11129355;26;20240;-77
2024/04/25 01:53:55;;;;;;;1.20;1.20;;;6.80;96.30;;;;;;11091455;26;20690;-76
2024/04/25 01:59:01;;;;;;;1.30;1.30;;;6.80;96.20;;;;;;11128969;26;20240;-78
2024/04/25 02:04:06;;;;;;;1.00;1.00;;;6.90;96.20;;;;;;11126096;26;20266;-76
2024/04/25 02:09:10;;;;;;;1.10;1.10;;;6.90;96.10;;;;;;11097255;26;20337;-73
2024/04/25 02:14:16;;;;;;;1.03;1.03;;;7.00;96.50;;;;;;11072575;26;20320;-75
2024/04/25 02:19:20;;;;;;;1.00;1.00;;;7.10;96.20;;;;;;11127838;26;20337;-75
2024/04/25 02:29:58;;;;;;;1.10;1.10;;;7.10;96.00;;;;;;10994240;26;20232;-77
2024/04/25 02:35:02;;;;;;;1.13;1.13;;;7.10;96.10;;;;;;11127187;26;20240;-75
2024/04/25 02:40:07;;;;;;;1.30;1.30;;;7.20;95.90;;;;;;11125986;26;20325;-74
2024/04/25 02:45:13;;;;;;;1.00;1.00;;;7.20;95.90;;;;;;11128004;26;20240;-75
2024/04/25 02:50:17;;;;;;;1.50;1.50;;;7.20;95.90;;;;;;11117882;26;20252;-76
2024/04/25 02:55:22;;;;;;;1.37;1.37;;;7.20;95.90;;;;;;11126819;26;20274;-77
2024/04/25 03:00:28;;;;;;;1.20;1.20;;;7.10;95.90;;;;;;11125972;26;20244;-76
2024/04/25 03:05:32;;;;;;;1.20;1.20;;;7.10;95.90;;;;;;11126336;26;20251;-75
2024/04/25 03:10:36;;;;;;;1.50;1.50;;;7.00;95.80;;;;;;11118553;26;20751;-76
2024/04/25 03:15:43;;;;;;;1.50;1.50;;;7.00;95.80;;;;;;11095427;26;20240;-75
2024/04/25 03:20:47;;;;;;;1.20;1.20;;;6.90;95.80;;;;;;11125521;26;20239;-74
2024/04/25 03:25:51;;;;;;;1.70;1.70;;;6.90;96.00;;;;;;11126024;26;20244;-74
2024/04/25 03:30:57;;;;;;;1.50;1.50;;;6.80;95.90;;;;;;11125383;26;20279;-74
2024/04/25 03:36:01;;;;;;;1.60;1.60;;;6.70;96.00;;;;;;11097176;26;20232;-74
2024/04/25 03:41:06;;;;;;;1.47;1.47;;;6.70;96.00;;;;;;11123514;26;20232;-75
2024/04/25 03:46:12;;;;;;;1.80;1.80;;;6.70;96.20;;;;;;11125047;26;20773;-75
2024/04/25 03:51:17;;;;;;;1.10;1.10;;;6.80;96.20;;;;;;11125793;26;20256;-74
2024/04/25 03:56:21;;;;;;;1.60;1.60;;;6.80;96.30;;;;;;11120150;26;20266;-74
2024/04/25 04:01:28;;;;;;;1.20;1.20;;;6.90;96.30;;;;;;11119120;26;20627;-75
2024/04/25 04:06:32;;;;;;;1.10;1.10;;;6.90;96.30;;;;;;11123776;26;20615;-73
2024/04/25 04:11:38;;;;;;;1.07;1.07;;;7.00;96.40;;;;;;11123490;26;20277;-73
2024/04/25 04:16:45;;;;;;;1.30;1.30;;;7.00;96.70;;;;;;11125703;26;20332;-74
2024/04/25 04:21:49;;;;;;;1.20;1.20;;;7.10;96.40;;;;;;11122430;26;20240;-73
2024/04/25 04:26:54;;;;;;;1.20;1.20;;;7.10;96.40;;;;;;11130928;26;20814;-75
2024/04/25 04:32:00;;;;;;;0.80;0.80;;;7.20;96.30;;;;;;11099658;26;20705;-75
2024/04/25 04:37:04;;;;;;;1.00;1.00;;;7.20;96.00;;;;;;11099004;26;20240;-77
2024/04/25 04:42:08;;;;;;;1.03;1.03;;;7.20;95.90;;;;;;11127527;26;20244;-75
2024/04/25 04:47:15;;;;;;;0.90;0.90;;;7.20;95.80;;;;;;11118542;26;20340;-76
2024/04/25 04:52:20;;;;;;;0.83;0.83;;;7.20;95.80;;;;;;11125031;26;20274;-75
2024/04/25 04:57:24;;;;;;;1.00;1.00;;;7.20;95.90;;;;;;11090754;26;20259;-75
2024/04/25 05:02:30;;;;;;;0.70;0.70;;;7.20;95.70;;;;;;11120493;26;20252;-75
2024/04/25 05:07:36;;;;;;;1.07;1.07;;;7.20;95.70;;;;;;11127968;26;20258;-74
2024/04/25 05:12:40;;;;;;;1.07;1.07;;;7.20;95.80;;;;;;11126755;26;20990;-76
2024/04/25 05:17:47;;;;;;;0.90;0.90;;;7.20;95.90;;;;;;11098403;26;20232;-75
2024/04/25 05:22:51;;;;;;;0.83;0.83;;;7.20;95.70;;;;;;11120826;26;20247;-77
2024/04/25 05:27:55;;;;;;;0.80;0.80;;;7.30;95.60;;;;;;11129639;26;20244;-74
2024/04/25 05:33:03;;;;;;;0.97;0.97;;;7.20;95.80;;;;;;11128731;26;20341;-75
2024/04/25 05:38:07;;;;;;;1.00;1.00;;;7.20;95.80;;;;;;11115548;26;21027;-74
2024/04/25 05:43:11;;;;;;;0.90;0.90;;;7.30;95.80;;;;;;11126234;26;21073;-74
2024/04/25 05:48:17;;;;;;;0.83;0.83;;;7.30;95.80;;;;;;11126038;26;20259;-74
2024/04/25 05:53:21;;;;;;;1.20;1.20;;;7.40;95.70;;;;;;11125442;26;20330;-74
2024/04/25 05:58:25;;;;;;;0.50;0.50;;;7.40;95.50;;;;;;11094794;26;20329;-74
2024/04/25 06:03:32;;;;;;;1.20;1.20;;;7.50;95.60;;;;;;11094499;26;20336;-74
2024/04/25 06:08:36;;;;;;;1.20;1.20;;;7.50;95.50;;;;;;11124658;26;20267;-74
2024/04/25 06:13:41;;;;;;;0.97;0.97;;;7.50;95.50;;;;;;11128068;26;20270;-74
2024/04/25 06:18:48;;;;;;;0.93;0.93;;;7.60;95.50;;;;;;11126881;26;20239;-75
2024/04/25 06:23:52;;;;;;;1.00;1.00;;;7.70;95.70;;;;;;11097333;26;20263;-75
2024/04/25 06:28:56;;;;;;;0.87;0.87;;;7.80;95.80;;;;;;11127234;26;20790;-75
2024/04/25 06:34:04;;;;;;;0.80;0.80;;;7.90;95.80;;;;;;11127089;26;20236;-75
2024/04/25 06:39:09;;;;;;;1.10;1.10;;;8.00;95.80;;;;;;11112558;26;20227;-73
2024/04/25 06:44:13;;;;;;;1.10;1.10;;;8.10;95.90;;;;;;11126508;26;20258;-74
2024/04/25 06:49:20;;;;;;;0.90;0.90;;;8.30;96.00;;;;;;11107663;26;20254;-74
2024/04/25 06:54:24;;;;;;;0.90;0.90;;;8.50;95.70;;;;;;11112199;26;20236;-75
2024/04/25 06:59:28;;;;;;;0.80;0.80;;;8.70;95.90;;;;;;11115383;26;20227;-74
2024/04/25 07:04:34;;;;;;;0.90;0.90;;;8.90;96.10;;;;;;11117891;26;20275;-75
2024/04/25 07:09:39;;;;;;;0.83;0.83;;;9.00;97.10;;;;;;11122767;26;20274;-75
2024/04/25 07:14:43;;;;;;;0.90;0.90;;;9.30;96.50;;;;;;11093540;26;20336;-74
2024/04/25 07:19:49;;;;;;;1.00;1.00;;;9.50;96.50;;;;;;11123460;26;20278;-75
2024/04/25 07:24:54;;;;;;;1.23;1.23;;;9.80;97.70;;;;;;11104130;26;20377;-75
2024/04/25 07:29:58;;;;;;;1.10;1.10;;;10.00;96.30;;;;;;11084693;26;20232;-74
2024/04/25 07:35:05;;;;;;;0.73;0.73;;;10.20;97.00;;;;;;11079062;26;20348;-75
2024/04/25 07:40:10;;;;;;;0.80;0.80;;;10.20;97.80;;;;;;11123444;26;20336;-75
2024/04/25 07:45:14;;;;;;;1.03;1.03;;;10.30;97.40;;;;;;11121171;26;20247;-75
2024/04/25 07:50:21;;;;;;;0.90;0.90;;;10.30;97.50;;;;;;11124510;26;20232;-75
2024/04/25 07:55:25;;;;;;;0.70;0.70;;;10.40;97.10;;;;;;11093474;26;20697;-75
2024/04/25 08:00:31;;;;;;;0.70;0.70;;;10.40;97.20;;;;;;11125442;26;20749;-75
2024/04/25 08:05:37;;;;;;;0.80;0.80;;;10.50;96.30;;;;;;11121243;26;20725;-75
2024/04/25 08:10:41;;;;;;;0.80;0.80;;;10.50;96.30;;;;;;11129385;26;20722;-74
2024/04/25 08:15:45;;;;;;;0.70;0.70;;;10.40;95.90;;;;;;11130097;26;20232;-74
2024/04/25 08:20:52;;;;;;;0.93;0.93;;;10.40;93.40;;;;;;11129196;26;20634;-75
2024/04/25 08:25:56;;;;;;;0.73;0.73;;;10.20;94.10;;;;;;11130009;26;20239;-74
2024/04/25 08:31:00;;;;;;;0.97;0.97;;;10.20;94.00;;;;;;11098265;26;20274;-75
2024/04/25 08:36:08;;;;;;;1.00;1.00;;;10.20;93.50;;;;;;11118649;26;20251;-76
2024/04/25 08:41:13;;;;;;;0.80;0.80;;;10.30;94.80;;;;;;11075523;26;20696;-74
2024/04/25 08:46:23;;;;;;;0.80;0.80;;;10.50;96.40;;;;;;11119212;26;20713;-75
2024/04/25 08:51:30;;;;;;;0.70;0.70;;;10.70;97.20;;;;;;11122490;26;20730;-75
2024/04/25 08:56:34;;;;;;;0.73;0.73;;;11.00;94.30;;;;;;11079551;26;20276;-75
2024/04/25 09:01:41;;;;;;;0.70;0.70;;;11.30;96.50;;;;;;11126944;26;20247;-75
2024/04/25 09:06:48;;;;;;;0.80;0.80;;;11.70;99.20;;;;;;11124792;26;20232;-74
2024/04/25 09:11:54;;;;;;;1.20;1.20;;;11.90;95.20;;;;;;11094678;26;20254;-75
2024/04/25 09:16:58;;;;;;;0.90;0.90;;;11.90;94.50;;;;;;11126657;26;20274;-75
2024/04/25 09:22:04;;;;;;;0.80;0.80;;;11.70;94.10;;;;;;11126712;26;20244;-76
2024/04/25 09:27:09;;;;;;;1.00;1.00;;;11.50;94.00;;;;;;11116804;26;20800;-75
2024/04/25 09:32:18;;;;;;;0.90;0.90;;;11.50;94.30;;;;;;11126566;26;20244;-75
2024/04/25 09:37:25;;;;;;;0.80;0.80;;;11.60;93.30;;;;;;11125377;26;20266;-75
2024/04/25 09:42:30;;;;;;;1.00;1.00;;;11.50;94.30;;;;;;11095067;26;20271;-75
2024/04/25 09:47:38;;;;;;;1.10;1.10;;;11.20;94.70;;;;;;11125664;26;20573;-75
2024/04/25 09:52:52;;;;;;;1.20;1.20;;;10.90;95.40;;;;;;11126014;26;20831;-75
2024/04/25 09:58:01;;;;;;;0.93;0.93;;;10.60;96.10;;;;;;11093568;26;20263;-74
2024/04/25 10:03:06;;;;;;;0.50;0.50;;;10.40;96.60;;;;;;11125058;26;20291;-74
2024/04/25 10:08:13;;;;;;;0.67;0.67;;;10.40;95.30;;;;;;11093189;26;20337;-75
2024/04/25 10:13:19;;;;;;;1.10;1.10;;;10.70;95.50;;;;;;11126172;26;20232;-75
2024/04/25 10:18:23;;;;;;;1.00;1.00;;;11.10;95.70;;;;;;11124705;26;20936;-75
2024/04/25 10:23:36;;;;;;;0.60;0.60;;;11.40;96.90;;;;;;11125230;26;20325;-75
2024/04/25 10:28:40;;;;;;;0.93;0.93;;;11.70;95.50;;;;;;11124444;26;20232;-74
2024/04/25 10:33:44;;;;;;;1.00;1.00;;;12.00;95.20;;;;;;11125265;26;20236;-75
2024/04/25 10:38:54;;;;;;;0.83;0.83;;;12.20;95.70;;;;;;11123665;26;20725;-74
2024/04/25 10:43:59;;;;;;;0.97;0.97;;;;;;;;;;11124776;26;20262;-75
2024/04/25 10:49:04;;;;;;;0.80;0.80;;;12.70;75.30;;;;;;11087353;26;20287;-75
2024/04/25 10:54:11;;;;;;;0.90;0.90;;;12.90;71.40;;;;;;11124160;26;20248;-75
2024/04/25 10:59:15;;;;;;;0.50;0.50;;;12.80;71.60;;;;;;11092557;26;20306;-75
2024/04/25 11:04:19;;;;;;;1.00;1.00;;;12.90;68.10;;;;;;11124482;26;20235;-76
2024/04/25 11:09:26;;;;;;;1.00;1.00;;;13.10;69.20;;;;;;11121645;26;20243;-75
2024/04/25 11:14:30;;;;;;;1.10;1.10;;;13.20;67.30;;;;;;11124033;26;20247;-75
2024/04/25 11:19:35;;;;;;;0.80;0.80;;;13.20;67.60;;;;;;11121149;26;20674;-74
2024/04/25 11:24:42;;;;;;;0.90;0.90;;;13.30;66.90;;;;;;11125296;26;20828;-76
2024/04/25 11:29:46;;;;;;;0.80;0.80;;;13.30;66.40;;;;;;11129208;26;20332;-74
2024/04/25 11:34:50;;;;;;;0.67;0.67;;;13.40;66.10;;;;;;11130447;26;20627;-74
2024/04/25 11:39:57;;;;;;;0.50;0.50;;;13.40;64.90;;;;;;11128928;26;20390;-76
2024/04/25 11:45:01;;;;;;;0.87;0.87;;;13.50;62.00;;;;;;11129950;26;20247;-74
2024/04/25 11:50:06;;;;;;;0.73;0.73;;;13.70;64.10;;;;;;11097472;26;20694;-75
2024/04/25 11:55:13;;;;;;;0.70;0.70;;;13.60;61.20;;;;;;11129603;26;20235;-75
2024/04/25 12:00:17;;;;;;;0.73;0.73;;;13.60;61.90;;;;;;11128504;26;20236;-75
2024/04/25 12:05:22;;;;;;;0.90;0.90;;;13.50;62.10;;;;;;11129728;26;20577;-74
2024/04/25 12:10:30;;;;;;;1.17;1.17;;;13.60;63.00;;;;;;11127947;26;20262;-77
2024/04/25 12:15:34;;;;;;;1.00;1.00;;;13.50;62.00;;;;;;11097571;26;20243;-77
2024/04/25 12:20:38;;;;;;;1.10;1.10;;;13.60;63.60;;;;;;11125350;26;20254;-77
2024/04/25 12:25:46;;;;;;;0.80;0.80;;;13.70;61.70;;;;;;11129283;26;20255;-78
2024/04/25 12:30:50;;;;;;;1.17;1.17;;;13.60;63.50;;;;;;11127635;26;20228;-76
2024/04/25 12:35:54;;;;;;;0.90;0.90;;;13.60;63.80;;;;;;11127410;26;20647;-77
2024/04/25 12:41:01;;;;;;;0.83;0.83;;;13.70;61.70;;;;;;11093681;26;21066;-77
2024/04/25 12:46:05;;;;;;;1.10;1.10;;;13.60;62.50;;;;;;11114828;26;20229;-76
2024/04/25 12:51:09;;;;;;;1.10;1.10;;;13.60;62.70;;;;;;11127366;26;20278;-75
2024/04/25 12:56:16;;;;;;;1.00;1.00;;;13.50;62.40;;;;;;11126559;26;20240;-73
2024/04/25 13:01:20;;;;;;;1.13;1.13;;;13.40;62.20;;;;;;11126673;26;20709;-74
2024/04/25 13:06:24;;;;;;;1.30;1.30;;;13.10;61.50;;;;;;11125208;26;20232;-74
2024/04/25 13:11:30;;;;;;;1.20;1.20;;;12.70;62.70;;;;;;11096283;26;20274;-75
2024/04/25 13:16:34;;;;;;;0.77;0.77;;;12.50;65.40;;;;;;11095811;26;20240;-77
2024/04/25 13:21:41;;;;;;;0.80;0.80;;;12.60;63.50;;;;;;11093608;26;20266;-77
2024/04/25 13:26:48;;;;;;;0.83;0.83;;;12.80;62.40;;;;;;11126860;26;20270;-76
2024/04/25 13:31:53;;;;;;;0.67;0.67;;;13.00;60.60;;;;;;11124379;26;20271;-77
2024/04/25 13:36:57;;;;;;;1.00;1.00;;;13.10;61.20;;;;;;11122737;26;20386;-77
2024/04/25 13:42:03;;;;;;;0.80;0.80;;;13.20;61.90;;;;;;11125949;26;20247;-77
2024/04/25 13:47:07;;;;;;;1.00;1.00;;;13.10;60.20;;;;;;11116410;26;20629;-77
2024/04/25 13:52:11;;;;;;;0.70;0.70;;;13.10;59.90;;;;;;11125368;26;20244;-75
2024/04/25 13:57:18;;;;;;;0.80;0.80;;;13.00;60.60;;;;;;11125813;26;20643;-76
2024/04/25 14:02:22;;;;;;;1.00;1.00;;;12.90;59.70;;;;;;11125429;26;20653;-76
2024/04/25 14:07:26;;;;;;;1.00;1.00;;;13.00;59.30;;;;;;11120348;26;20321;-76
2024/04/25 14:12:33;;;;;;;0.90;0.90;;;13.10;58.40;;;;;;11124828;26;20764;-76
2024/04/25 14:17:37;;;;;;;1.10;1.10;;;13.10;57.20;;;;;;11124932;26;20340;-76
2024/04/25 14:22:41;;;;;;;1.10;1.10;;;13.00;57.00;;;;;;11086802;26;20557;-76
2024/04/25 14:33:11;;;;;;;0.90;0.90;;;12.80;58.80;;;;;;11103820;26;20262;-76
2024/04/25 14:38:14;;;;;;;1.10;1.10;;;12.70;59.50;;;;;;11054769;26;20274;-77
2024/04/25 14:43:21;;;;;;;1.00;1.00;;;12.70;59.80;;;;;;11092815;26;20352;-76
2024/04/25 14:48:27;;;;;;;0.73;0.73;;;12.70;59.20;;;;;;11123956;26;20224;-76
2024/04/25 14:53:31;;;;;;;0.80;0.80;;;12.70;61.40;;;;;;11124090;26;20248;-78
2024/04/25 14:58:38;;;;;;;1.10;1.10;;;12.70;62.40;;;;;;11124107;26;20240;-78
2024/04/25 15:03:42;;;;;;;0.97;0.97;;;12.80;62.10;;;;;;11122779;26;20725;-76
2024/04/25 15:08:46;;;;;;;0.80;0.80;;;12.70;61.80;;;;;;11121378;26;20725;-78
2024/04/25 15:13:55;;;;;;;0.90;0.90;;;12.80;59.80;;;;;;11124173;26;20244;-76
2024/04/25 15:18:59;;;;;;;1.00;1.00;;;12.70;59.20;;;;;;11122181;26;20258;-78
2024/04/25 15:24:04;;;;;;;0.80;0.80;;;12.60;59.70;;;;;;11092747;26;20232;-76
2024/04/25 15:29:11;;;;;;;0.90;0.90;;;12.60;59.20;;;;;;11112683;26;20248;-76
2024/04/25 15:34:15;;;;;;;0.90;0.90;;;12.50;59.00;;;;;;11122496;26;20231;-77
2024/04/25 15:39:19;;;;;;;0.80;0.80;;;12.50;59.70;;;;;;11116919;26;20239;-76
2024/04/25 15:44:26;;;;;;;0.70;0.70;;;12.50;59.80;;;;;;11119874;26;20667;-76
2024/04/25 15:49:30;;;;;;;0.87;0.87;;;12.40;59.50;;;;;;11113111;26;20345;-77
2024/04/25 15:54:35;;;;;;;1.00;1.00;;;12.30;59.50;;;;;;11121852;26;20341;-75
2024/04/25 15:59:42;;;;;;;0.93;0.93;;;12.10;59.80;;;;;;11121382;26;20236;-75
2024/04/25 16:04:46;;;;;;;0.60;0.60;;;12.20;60.40;;;;;;11121431;26;20298;-74
2024/04/25 16:09:50;;;;;;;0.40;0.40;;;12.10;61.60;;;;;;11083603;26;20239;-74
2024/04/25 16:14:56;;;;;;;0.50;0.50;;;12.20;61.80;;;;;;11128225;26;20340;-75
2024/04/25 16:20:01;;;;;;;0.20;0.20;;;12.20;63.40;;;;;;11128158;26;20320;-76
2024/04/25 16:25:06;;;;;;;0.90;0.90;;;12.20;63.00;;;;;;11097797;26;20248;-76
2024/04/25 16:30:14;;;;;;;0.97;0.97;;;12.20;61.70;;;;;;11127759;26;20725;-74
2024/04/25 16:35:18;;;;;;;0.80;0.80;;;12.20;62.10;;;;;;11125553;26;20822;-74
2024/04/25 16:40:22;;;;;;;1.00;1.00;;;12.10;62.30;;;;;;11085705;26;20343;-75
2024/04/25 16:45:30;;;;;;;1.00;1.00;;;12.10;62.20;;;;;;11128355;26;20247;-74
2024/04/25 16:50:34;;;;;;;0.80;0.80;;;12.10;64.10;;;;;;11119669;26;20236;-74
2024/04/25 16:55:38;;;;;;;0.87;0.87;;;12.10;63.10;;;;;;11128076;26;20258;-74
2024/04/25 17:00:44;;;;;;;0.70;0.70;;;12.10;62.40;;;;;;11127193;26;20240;-73
2024/04/25 17:05:49;;;;;;;0.80;0.80;;;12.00;62.70;;;;;;11125121;26;20236;-74
2024/04/25 17:10:53;;;;;;;0.60;0.60;;;11.90;61.60;;;;;;11126206;26;20930;-74
2024/04/25 17:15:59;;;;;;;0.60;0.60;;;11.80;62.70;;;;;;11128339;26;20709;-75
2024/04/25 17:21:06;;;;;;;0.70;0.70;;;11.70;62.70;;;;;;11123798;26;20267;-75
2024/04/25 17:26:10;;;;;;;0.70;0.70;;;11.60;63.40;;;;;;11126352;26;20703;-73
2024/04/25 17:31:17;;;;;;;0.80;0.80;;;11.60;63.60;;;;;;11126726;26;20232;-74
2024/04/25 17:36:21;;;;;;;0.70;0.70;;;11.50;64.50;;;;;;11128799;26;20668;-75
2024/04/25 17:41:25;;;;;;;0.60;0.60;;;11.50;63.90;;;;;;11125032;26;20293;-75
2024/04/25 17:46:32;;;;;;;0.70;0.70;;;11.40;66.80;;;;;;11128953;26;20228;-73
2024/04/25 17:51:40;;;;;;;0.80;0.80;;;11.40;67.70;;;;;;11128361;26;20240;-75
2024/04/25 17:56:44;;;;;;;0.60;0.60;;;11.40;67.60;;;;;;11128405;26;20232;-74
2024/04/25 18:01:55;;;;;;;0.77;0.77;;;11.30;69.00;;;;;;11128261;26;20240;-74
2024/04/25 18:07:01;;;;;;;0.90;0.90;;;11.30;68.70;;;;;;11120166;26;20228;-75
2024/04/25 18:12:05;;;;;;;0.63;0.63;;;11.20;69.10;;;;;;11128180;26;20320;-74
2024/04/25 18:17:12;;;;;;;0.70;0.70;;;11.20;69.20;;;;;;11128012;26;20236;-75
2024/04/25 18:22:22;;;;;;;0.60;0.60;;;11.10;69.90;;;;;;11127792;26;20271;-73
2024/04/25 18:27:28;;;;;;;0.70;0.70;;;11.00;69.60;;;;;;11128507;26;20236;-75
2024/04/25 18:32:36;;;;;;;0.60;0.60;;;10.80;70.50;;;;;;11122642;26;20266;-74
2024/04/25 18:37:41;;;;;;;0.80;0.80;;;10.70;71.40;;;;;;11120434;26;20224;-75
2024/04/25 18:42:45;;;;;;;0.40;0.40;;;10.60;71.20;;;;;;11092637;26;20244;-73
2024/04/25 18:47:52;;;;;;;1.00;1.00;;;10.40;73.00;;;;;;11124865;26;20232;-74
2024/04/25 18:52:56;;;;;;;0.90;0.90;;;10.20;72.80;;;;;;11096329;26;20343;-75
2024/04/25 18:58:00;;;;;;;0.90;0.90;;;10.00;74.00;;;;;;11124285;26;20243;-75
2024/04/25 19:03:07;;;;;;;1.00;1.00;;;9.90;74.70;;;;;;11104206;26;20235;-75
2024/04/25 19:08:11;;;;;;;0.93;0.93;;;9.70;74.50;;;;;;11125667;26;20721;-75
2024/04/25 19:13:16;;;;;;;1.10;1.10;;;9.50;74.90;;;;;;11126305;26;20244;-75
2024/04/25 19:18:25;;;;;;;1.00;1.00;;;9.30;75.70;;;;;;11125607;26;20236;-75
2024/04/25 19:23:29;;;;;;;1.00;1.00;;;9.20;75.80;;;;;;11095685;26;20573;-75
2024/04/25 19:28:33;;;;;;;0.80;0.80;;;9.10;76.70;;;;;;11125350;26;20224;-75
2024/04/25 19:33:40;;;;;;;0.60;0.60;;;9.00;76.80;;;;;;11094685;26;20270;-75
2024/04/25 19:38:44;;;;;;;0.90;0.90;;;8.80;77.30;;;;;;11124416;26;20262;-75
2024/04/25 19:43:48;;;;;;;1.10;1.10;;;8.70;77.30;;;;;;11119039;26;20350;-75
2024/04/25 19:48:54;;;;;;;0.80;0.80;;;8.60;76.90;;;;;;11123713;26;20274;-75
2024/04/25 19:53:58;;;;;;;0.87;0.87;;;8.50;77.30;;;;;;11128508;26;20262;-75
2024/04/25 19:59:02;;;;;;;0.83;0.83;;;8.40;77.70;;;;;;11127578;26;20239;-75
2024/04/25 20:04:09;;;;;;;0.90;0.90;;;8.30;77.40;;;;;;11094640;26;20236;-74
2024/04/25 20:09:13;;;;;;;0.90;0.90;;;8.20;77.20;;;;;;11118101;26;20274;-75
2024/04/25 20:14:17;;;;;;;0.90;0.90;;;8.10;77.40;;;;;;11124559;26;20705;-74
2024/04/25 20:24:49;;;;;;;0.90;0.90;;;8.00;77.40;;;;;;11017233;26;20770;-75
2024/04/25 20:29:53;;;;;;;0.80;0.80;;;7.80;77.60;;;;;;11124477;26;20698;-75
2024/04/25 20:35:00;;;;;;;0.90;0.90;;;7.80;78.00;;;;;;11131477;26;20628;-74
2024/04/25 20:40:06;;;;;;;0.90;0.90;;;7.80;78.40;;;;;;11129649;26;20231;-74
2024/04/25 20:45:10;;;;;;;0.80;0.80;;;7.80;78.70;;;;;;11088082;26;20231;-77
2024/04/25 20:50:17;;;;;;;1.07;1.07;;;7.80;79.30;;;;;;11130590;26;20645;-74
2024/04/25 20:55:21;;;;;;;1.20;1.20;;;7.70;78.70;;;;;;11131369;26;20236;-73
2024/04/25 21:00:27;;;;;;;0.90;0.90;;;7.70;78.80;;;;;;11127798;26;20224;-75
2024/04/25 21:05:33;;;;;;;0.83;0.83;;;7.70;78.70;;;;;;11131059;26;20270;-75
2024/04/25 21:10:37;;;;;;;1.00;1.00;;;7.70;79.40;;;;;;11129454;26;20232;-75
2024/04/25 21:15:41;;;;;;;1.10;1.10;;;7.60;79.30;;;;;;11130695;26;20713;-75
2024/04/25 21:20:48;;;;;;;1.00;1.00;;;7.60;79.50;;;;;;11121392;26;20337;-75
2024/04/25 21:25:52;;;;;;;1.10;1.10;;;7.60;79.40;;;;;;11131209;26;20605;-77
2024/04/25 21:30:56;;;;;;;0.77;0.77;;;7.60;79.80;;;;;;11128315;26;20264;-77
2024/04/25 21:36:03;;;;;;;0.90;0.90;;;7.50;79.60;;;;;;11129944;26;20244;-76
2024/04/25 21:41:07;;;;;;;0.70;0.70;;;7.50;79.70;;;;;;11084573;26;20231;-74
2024/04/25 21:46:11;;;;;;;0.70;0.70;;;7.50;80.20;;;;;;11096365;26;20275;-74
2024/04/25 21:51:18;;;;;;;0.80;0.80;;;7.50;80.40;;;;;;11128225;26;21034;-74
2024/04/25 21:56:22;;;;;;;0.50;0.50;;;7.50;80.20;;;;;;11128720;26;20236;-74
2024/04/25 22:01:28;;;;;;;0.53;0.53;;;7.40;80.10;;;;;;11128735;26;20316;-74
2024/04/25 22:06:35;;;;;;;0.70;0.70;;;7.40;80.30;;;;;;11129408;26;20232;-76
2024/04/25 22:11:39;;;;;;;0.70;0.70;;;7.30;80.80;;;;;;11128647;26;20282;-73
2024/04/25 22:16:43;;;;;;;0.50;0.50;;;7.30;81.40;;;;;;11129180;26;20298;-74
2024/04/25 22:21:53;;;;;;;0.60;0.60;;;7.20;81.40;;;;;;11129596;26;20274;-74
2024/04/25 22:26:57;;;;;;;0.70;0.70;;;7.20;81.50;;;;;;11121885;26;20244;-75
2024/04/25 22:32:01;;;;;;;0.50;0.50;;;7.20;80.70;;;;;;11121527;26;20293;-76
2024/04/25 22:37:07;;;;;;;0.70;0.70;;;7.20;80.80;;;;;;11129370;26;20252;-75
2024/04/25 22:42:11;;;;;;;0.90;0.90;;;7.30;81.20;;;;;;11127677;26;20248;-72
2024/04/25 22:47:15;;;;;;;0.77;0.77;;;7.30;81.20;;;;;;11128570;26;20262;-75
2024/04/25 22:52:22;;;;;;;0.60;0.60;;;7.40;80.90;;;;;;11129366;26;20239;-74
2024/04/25 22:57:26;;;;;;;0.60;0.60;;;7.40;80.80;;;;;;11128812;26;20228;-74
2024/04/25 23:02:30;;;;;;;0.50;0.50;;;7.40;81.00;;;;;;11097930;26;20582;-73
2024/04/25 23:07:37;;;;;;;0.60;0.60;;;7.50;80.80;;;;;;11128791;26;20224;-75
2024/04/25 23:12:41;;;;;;;0.50;0.50;;;7.50;81.10;;;;;;11127720;26;20717;-73
2024/04/25 23:17:47;;;;;;;0.60;0.60;;;7.50;80.80;;;;;;11063702;26;20235;-73
2024/04/25 23:22:55;;;;;;;0.60;0.60;;;7.40;80.50;;;;;;11132100;26;20254;-77
2024/04/25 23:27:59;;;;;;;0.60;0.60;;;7.40;80.60;;;;;;11134354;26;20232;-74
2024/04/25 23:33:03;;;;;;;0.60;0.60;;;7.40;80.60;;;;;;11135527;26;20810;-74
2024/04/25 23:38:09;;;;;;;0.50;0.50;;;7.40;80.60;;;;;;11103202;26;20562;-74
2024/04/25 23:43:13;;;;;;;0.40;0.40;;;7.50;80.90;;;;;;11127032;26;20244;-74
2024/04/25 23:48:17;;;;;;;0.60;0.60;;;7.50;79.80;;;;;;11134952;26;20810;-74
2024/04/25 23:53:24;;;;;;;0.50;0.50;;;7.50;80.40;;;;;;11134874;26;20267;-75
2024/04/25 23:58:28;;;;;;;0.50;0.50;;;7.50;80.50;;;;;;11134203;26;20258;-74
